sim
Sign-in with your pilot id or email,
or register
Callsign
Passwort

Schedule Details

Flight Number: OEO8593
Departure: Strasbourg Airport (LFST) at 12:00
Arrival: Munich Airport (EDDM) at 13:10

Weather Information
Getting current METAR information for LFST 191030Z AUTO VRB02KT CAVOK 22/12 Q1019 NOSIG
Getting current METAR information for EDDM 191050Z 05006KT 010V110 CAVOK 19/11 Q1019 NOSIG

Schedule Frequency

Route Map